createdAt,value
2023-05-15T00:00:02.858Z,1009.0
2023-05-15T00:15:02.184Z,1009.0
2023-05-15T00:30:02.874Z,1009.0
2023-05-15T00:45:02.089Z,1009.0
2023-05-15T01:00:02.497Z,1008.9
2023-05-15T01:15:02.964Z,1008.7
2023-05-15T01:30:02.412Z,1008.7
2023-05-15T01:45:02.844Z,1008.7
2023-05-15T02:00:02.265Z,1008.5
2023-05-15T02:15:02.871Z,1008.4
2023-05-15T02:30:02.131Z,1008.3
2023-05-15T02:45:02.564Z,1008.1
2023-05-15T03:00:03.023Z,1008.3
2023-05-15T03:15:02.463Z,1008.2
2023-05-15T03:30:02.920Z,1008.1
2023-05-15T03:45:02.316Z,1008.1
2023-05-15T04:00:02.874Z,1008.2
2023-05-15T04:15:02.218Z,1008.0
2023-05-15T04:30:02.892Z,1008.0
2023-05-15T04:45:02.104Z,1008.1
2023-05-15T05:00:02.549Z,1008.1
2023-05-15T05:15:02.994Z,1008.2
2023-05-15T05:30:02.435Z,1008.2
2023-05-15T05:45:02.952Z,1008.4
2023-05-15T06:00:02.310Z,1008.4
2023-05-15T06:15:02.901Z,1008.2
2023-05-15T06:30:02.201Z,1008.2
2023-05-15T06:45:02.643Z,1008.2
2023-05-15T07:00:03.086Z,1008.2
2023-05-15T07:15:02.527Z,1008.3
2023-05-15T07:30:02.973Z,1008.3
2023-05-15T07:45:02.438Z,1007.9
2023-05-15T08:00:02.908Z,1008.2
2023-05-15T08:15:02.293Z,1008.3
2023-05-15T08:30:02.953Z,1008.3
2023-05-15T08:45:02.174Z,1008.0
2023-05-15T09:00:02.627Z,1008.2
2023-05-15T09:15:03.055Z,1008.4
2023-05-15T09:30:02.498Z,1008.2
2023-05-15T09:45:02.928Z,1008.1
2023-05-15T10:00:02.389Z,1008.1
2023-05-15T10:15:02.939Z,1008.2
2023-05-15T10:30:02.266Z,1008.4
2023-05-15T10:45:02.722Z,1008.2
2023-05-15T11:00:03.146Z,1008.0
2023-05-15T11:15:02.550Z,1007.9
2023-05-15T11:30:03.022Z,1007.8
2023-05-15T11:45:02.407Z,1007.7
2023-05-15T12:00:02.955Z,1007.6
2023-05-15T12:15:02.318Z,1007.6
2023-05-15T12:30:02.960Z,1007.5
2023-05-15T12:45:02.165Z,1007.3
2023-05-15T13:00:02.597Z,1007.3
2023-05-15T13:15:03.080Z,1007.2
2023-05-15T13:30:02.501Z,1007.1
2023-05-15T13:45:02.978Z,1007.1
2023-05-15T14:00:02.360Z,1006.9
2023-05-15T14:15:02.983Z,1006.8
2023-05-15T14:30:02.288Z,1006.8
2023-05-15T14:45:02.706Z,1006.7
2023-05-15T15:00:03.198Z,1006.7
2023-05-15T15:15:02.575Z,1006.8
2023-05-15T15:30:03.064Z,1006.7
2023-05-15T15:45:02.472Z,1006.7
2023-05-15T16:00:03.027Z,1006.7
2023-05-15T16:15:20.102Z,1006.8
2023-05-15T16:30:03.019Z,1006.9
2023-05-15T16:45:02.224Z,1007.0
2023-05-15T17:00:02.672Z,1007.2
2023-05-15T17:15:03.117Z,1007.3
2023-05-15T17:30:02.571Z,1007.4
2023-05-15T17:45:03.049Z,1007.7
2023-05-15T18:00:02.417Z,1008.0
2023-05-15T18:15:03.021Z,1008.4
2023-05-15T18:30:02.296Z,1008.6
2023-05-15T18:45:02.734Z,1008.8
2023-05-15T19:00:03.173Z,1009.1
2023-05-15T19:15:02.618Z,1009.3
2023-05-15T19:30:03.056Z,1009.5
2023-05-15T19:45:02.497Z,1009.7
2023-05-15T20:00:03.030Z,1009.8
2023-05-15T20:15:02.359Z,1010.0
2023-05-15T20:30:03.037Z,1010.3
2023-05-15T20:45:02.253Z,1010.4
2023-05-15T21:00:02.679Z,1010.4
2023-05-15T21:15:03.114Z,1010.5
2023-05-15T21:30:02.530Z,1010.5
2023-05-15T21:45:05.345Z,1010.6
2023-05-15T22:00:03.418Z,1010.7
2023-05-15T22:15:03.046Z,1010.6
2023-05-15T22:30:02.353Z,1010.3
2023-05-15T22:45:02.758Z,1010.8
2023-05-15T23:00:03.211Z,1010.7
2023-05-15T23:15:02.612Z,1010.9
2023-05-15T23:30:03.091Z,1011.0
2023-05-15T23:45:02.490Z,1010.8
